sensor_id;sensor_type;location;lat;lon;timestamp;pressure;altitude;pressure_sealevel;temperature;humidity
63493;BME280;49638;47.526;10.028;2024-03-25T00:01:20;91038.72;;;1.07;91.82
63493;BME280;49638;47.526;10.028;2024-03-25T00:04:20;91040.69;;;1.18;91.61
63493;BME280;49638;47.526;10.028;2024-03-25T00:07:22;91040.69;;;1.18;91.05
63493;BME280;49638;47.526;10.028;2024-03-25T00:10:22;91047.06;;;1.22;91.44
63493;BME280;49638;47.526;10.028;2024-03-25T00:13:23;91048.09;;;1.21;91.18
63493;BME280;49638;47.526;10.028;2024-03-25T00:16:23;91045.69;;;1.26;91.19
63493;BME280;49638;47.526;10.028;2024-03-25T00:19:23;91041.66;;;1.30;91.08
63493;BME280;49638;47.526;10.028;2024-03-25T00:22:24;91040.44;;;1.39;90.89
63493;BME280;49638;47.526;10.028;2024-03-25T00:25:25;91047.81;;;1.42;90.39
63493;BME280;49638;47.526;10.028;2024-03-25T00:28:25;91013.59;;;1.32;90.35
63493;BME280;49638;47.526;10.028;2024-03-25T00:31:26;91029.59;;;1.42;89.92
63493;BME280;49638;47.526;10.028;2024-03-25T00:34:26;91023.03;;;1.33;90.18
63493;BME280;49638;47.526;10.028;2024-03-25T00:37:26;91031.81;;;1.39;90.01
63493;BME280;49638;47.526;10.028;2024-03-25T00:40:26;91027.44;;;1.39;90.28
63493;BME280;49638;47.526;10.028;2024-03-25T00:43:27;91035.03;;;1.41;90.35
63493;BME280;49638;47.526;10.028;2024-03-25T00:46:27;91024.00;;;1.39;90.11
63493;BME280;49638;47.526;10.028;2024-03-25T00:49:27;91026.03;;;1.37;90.47
63493;BME280;49638;47.526;10.028;2024-03-25T00:52:28;91020.59;;;1.38;89.91
63493;BME280;49638;47.526;10.028;2024-03-25T00:55:28;91007.59;;;1.32;90.09
63493;BME280;49638;47.526;10.028;2024-03-25T00:58:28;90997.97;;;1.32;89.33
63493;BME280;49638;47.526;10.028;2024-03-25T01:01:29;91004.41;;;1.36;89.46
63493;BME280;49638;47.526;10.028;2024-03-25T01:04:30;91012.00;;;1.38;89.55
63493;BME280;49638;47.526;10.028;2024-03-25T01:07:30;91000.00;;;1.30;89.64
63493;BME280;49638;47.526;10.028;2024-03-25T01:10:31;91003.59;;;1.36;89.29
63493;BME280;49638;47.526;10.028;2024-03-25T01:13:31;91003.41;;;1.37;89.49
63493;BME280;49638;47.526;10.028;2024-03-25T01:16:32;91007.59;;;1.38;89.90
63493;BME280;49638;47.526;10.028;2024-03-25T01:19:32;90993.38;;;1.34;89.92
63493;BME280;49638;47.526;10.028;2024-03-25T01:22:33;90996.75;;;1.41;90.12
63493;BME280;49638;47.526;10.028;2024-03-25T01:25:34;90975.56;;;1.38;90.03
63493;BME280;49638;47.526;10.028;2024-03-25T01:28:34;90987.75;;;1.44;90.45
63493;BME280;49638;47.526;10.028;2024-03-25T01:31:35;90993.75;;;1.45;90.32
63493;BME280;49638;47.526;10.028;2024-03-25T01:34:35;90971.75;;;1.34;90.98
63493;BME280;49638;47.526;10.028;2024-03-25T01:37:35;90989.38;;;1.38;90.81
63493;BME280;49638;47.526;10.028;2024-03-25T01:40:35;90993.59;;;1.39;90.71
63493;BME280;49638;47.526;10.028;2024-03-25T01:43:36;90976.75;;;1.35;90.55
63493;BME280;49638;47.526;10.028;2024-03-25T01:46:37;90982.72;;;1.42;90.38
63493;BME280;49638;47.526;10.028;2024-03-25T01:49:38;90991.16;;;1.45;90.70
63493;BME280;49638;47.526;10.028;2024-03-25T01:52:39;90971.53;;;1.35;90.74
63493;BME280;49638;47.526;10.028;2024-03-25T01:55:40;90973.16;;;1.36;91.08
63493;BME280;49638;47.526;10.028;2024-03-25T01:58:41;90965.16;;;1.31;90.79
63493;BME280;49638;47.526;10.028;2024-03-25T02:01:43;90972.75;;;1.39;90.70
63493;BME280;49638;47.526;10.028;2024-03-25T02:04:44;90978.38;;;1.36;91.17
63493;BME280;49638;47.526;10.028;2024-03-25T02:07:45;90945.16;;;1.25;90.92
63493;BME280;49638;47.526;10.028;2024-03-25T02:10:46;90963.31;;;1.38;91.25
63493;BME280;49638;47.526;10.028;2024-03-25T02:13:46;90961.91;;;1.42;90.68
63493;BME280;49638;47.526;10.028;2024-03-25T02:16:47;90958.13;;;1.38;90.89
63493;BME280;49638;47.526;10.028;2024-03-25T02:19:47;90955.88;;;1.49;90.52
63493;BME280;49638;47.526;10.028;2024-03-25T02:22:47;90962.50;;;1.45;90.64
63493;BME280;49638;47.526;10.028;2024-03-25T02:25:51;90956.28;;;1.46;90.64
63493;BME280;49638;47.526;10.028;2024-03-25T02:28:52;90923.91;;;1.28;90.79
63493;BME280;49638;47.526;10.028;2024-03-25T02:31:52;90951.06;;;1.46;90.77
63493;BME280;49638;47.526;10.028;2024-03-25T02:34:54;90927.69;;;1.39;90.06
63493;BME280;49638;47.526;10.028;2024-03-25T02:37:55;90942.25;;;1.53;90.44
63493;BME280;49638;47.526;10.028;2024-03-25T02:40:55;90941.88;;;1.50;90.04
63493;BME280;49638;47.526;10.028;2024-03-25T02:43:55;90948.25;;;1.54;90.25
63493;BME280;49638;47.526;10.028;2024-03-25T02:46:56;90941.44;;;1.53;89.98
63493;BME280;49638;47.526;10.028;2024-03-25T02:49:56;90944.63;;;1.55;89.76
63493;BME280;49638;47.526;10.028;2024-03-25T02:52:57;90952.28;;;1.50;90.10
63493;BME280;49638;47.526;10.028;2024-03-25T02:55:57;90948.66;;;1.51;90.28
63493;BME280;49638;47.526;10.028;2024-03-25T02:58:57;90944.09;;;1.46;90.16
63493;BME280;49638;47.526;10.028;2024-03-25T03:01:57;90942.84;;;1.49;89.77
63493;BME280;49638;47.526;10.028;2024-03-25T03:04:58;90927.91;;;1.37;89.93
63493;BME280;49638;47.526;10.028;2024-03-25T03:07:59;90924.09;;;1.40;90.12
63493;BME280;49638;47.526;10.028;2024-03-25T03:10:59;90936.88;;;1.41;90.52
63493;BME280;49638;47.526;10.028;2024-03-25T03:14:00;90938.91;;;1.39;90.29
63493;BME280;49638;47.526;10.028;2024-03-25T03:17:00;90921.31;;;1.28;90.10
63493;BME280;49638;47.526;10.028;2024-03-25T03:20:05;90942.50;;;1.38;90.25
63493;BME280;49638;47.526;10.028;2024-03-25T03:23:06;90941.50;;;1.39;90.21
63493;BME280;49638;47.526;10.028;2024-03-25T03:26:06;90925.72;;;1.28;90.25
63493;BME280;49638;47.526;10.028;2024-03-25T03:29:06;90941.72;;;1.31;90.21
63493;BME280;49638;47.526;10.028;2024-03-25T03:32:07;90927.13;;;1.30;90.23
63493;BME280;49638;47.526;10.028;2024-03-25T03:35:08;90937.72;;;1.29;89.96
63493;BME280;49638;47.526;10.028;2024-03-25T03:38:08;90937.56;;;1.24;90.14
63493;BME280;49638;47.526;10.028;2024-03-25T03:41:09;90928.19;;;1.16;90.55
63493;BME280;49638;47.526;10.028;2024-03-25T03:44:10;90921.00;;;1.05;90.30
63493;BME280;49638;47.526;10.028;2024-03-25T03:47:10;90933.81;;;1.13;90.38
63493;BME280;49638;47.526;10.028;2024-03-25T03:50:10;90925.19;;;1.19;90.72
63493;BME280;49638;47.526;10.028;2024-03-25T03:53:11;90926.16;;;1.18;89.73
63493;BME280;49638;47.526;10.028;2024-03-25T03:56:11;90925.56;;;1.23;90.16
63493;BME280;49638;47.526;10.028;2024-03-25T03:59:12;90928.34;;;1.28;90.45
63493;BME280;49638;47.526;10.028;2024-03-25T04:02:12;90924.72;;;1.29;89.64
63493;BME280;49638;47.526;10.028;2024-03-25T04:05:13;90929.09;;;1.35;89.55
63493;BME280;49638;47.526;10.028;2024-03-25T04:08:13;90919.06;;;1.38;89.97
63493;BME280;49638;47.526;10.028;2024-03-25T04:11:14;90928.91;;;1.36;90.21
63493;BME280;49638;47.526;10.028;2024-03-25T04:14:15;90927.50;;;1.34;90.08
63493;BME280;49638;47.526;10.028;2024-03-25T04:17:15;90928.31;;;1.34;89.96
63493;BME280;49638;47.526;10.028;2024-03-25T04:20:16;90931.50;;;1.36;89.84
63493;BME280;49638;47.526;10.028;2024-03-25T04:23:16;90935.47;;;1.39;89.10
63493;BME280;49638;47.526;10.028;2024-03-25T04:26:16;90939.72;;;1.40;89.77
63493;BME280;49638;47.526;10.028;2024-03-25T04:29:16;90935.09;;;1.35;90.07
63493;BME280;49638;47.526;10.028;2024-03-25T04:32:17;90936.38;;;1.26;89.97
63493;BME280;49638;47.526;10.028;2024-03-25T04:35:17;90929.19;;;1.15;90.08
63493;BME280;49638;47.526;10.028;2024-03-25T04:38:17;90920.22;;;1.04;90.67
63493;BME280;49638;47.526;10.028;2024-03-25T04:41:17;90924.88;;;0.96;90.33
63493;BME280;49638;47.526;10.028;2024-03-25T04:44:18;90924.25;;;0.93;90.43
63493;BME280;49638;47.526;10.028;2024-03-25T04:47:18;90923.66;;;0.91;91.23
63493;BME280;49638;47.526;10.028;2024-03-25T04:50:18;90910.50;;;0.73;91.64
63493;BME280;49638;47.526;10.028;2024-03-25T04:53:18;90923.50;;;0.73;92.08
63493;BME280;49638;47.526;10.028;2024-03-25T04:56:21;90914.31;;;0.64;91.96
63493;BME280;49638;47.526;10.028;2024-03-25T04:59:21;90924.13;;;0.68;91.22
63493;BME280;49638;47.526;10.028;2024-03-25T05:02:21;90922.50;;;0.67;92.02
63493;BME280;49638;47.526;10.028;2024-03-25T05:05:21;90927.13;;;0.72;91.62
63493;BME280;49638;47.526;10.028;2024-03-25T05:08:24;90917.31;;;0.67;91.95
63493;BME280;49638;47.526;10.028;2024-03-25T05:11:24;90927.50;;;0.76;92.19
63493;BME280;49638;47.526;10.028;2024-03-25T05:14:25;90934.91;;;0.79;91.93
63493;BME280;49638;47.526;10.028;2024-03-25T05:17:25;90923.72;;;0.78;91.91
63493;BME280;49638;47.526;10.028;2024-03-25T05:20:26;90920.09;;;0.79;92.08
63493;BME280;49638;47.526;10.028;2024-03-25T05:23:26;90921.31;;;0.77;91.71
63493;BME280;49638;47.526;10.028;2024-03-25T05:26:27;90932.72;;;0.76;92.26
63493;BME280;49638;47.526;10.028;2024-03-25T05:29:27;90924.31;;;0.74;92.43
63493;BME280;49638;47.526;10.028;2024-03-25T05:32:27;90916.31;;;0.75;92.22
63493;BME280;49638;47.526;10.028;2024-03-25T05:35:27;90914.13;;;0.72;91.18
63493;BME280;49638;47.526;10.028;2024-03-25T05:38:28;90909.50;;;0.74;91.58
63493;BME280;49638;47.526;10.028;2024-03-25T05:41:29;90891.13;;;0.69;90.17
63493;BME280;49638;47.526;10.028;2024-03-25T05:44:29;90904.69;;;0.78;90.02
63493;BME280;49638;47.526;10.028;2024-03-25T05:47:29;90898.69;;;0.77;89.61
63493;BME280;49638;47.526;10.028;2024-03-25T05:50:29;90886.50;;;0.71;89.50
63493;BME280;49638;47.526;10.028;2024-03-25T05:53:30;90905.69;;;0.83;89.54
63493;BME280;49638;47.526;10.028;2024-03-25T05:56:30;90897.09;;;0.76;89.37
63493;BME280;49638;47.526;10.028;2024-03-25T05:59:30;90913.06;;;0.86;89.38
63493;BME280;49638;47.526;10.028;2024-03-25T06:02:31;90908.88;;;0.92;89.99
63493;BME280;49638;47.526;10.028;2024-03-25T06:05:31;90907.41;;;1.03;88.95
63493;BME280;49638;47.526;10.028;2024-03-25T06:08:32;90895.47;;;1.33;88.78
63493;BME280;49638;47.526;10.028;2024-03-25T06:11:33;90900.09;;;1.63;87.67
63493;BME280;49638;47.526;10.028;2024-03-25T06:14:33;90896.16;;;1.85;87.22
63493;BME280;49638;47.526;10.028;2024-03-25T06:17:33;90891.19;;;2.09;87.66
63493;BME280;49638;47.526;10.028;2024-03-25T06:20:34;90898.06;;;2.28;87.64
63493;BME280;49638;47.526;10.028;2024-03-25T06:23:34;90886.25;;;2.44;87.06
63493;BME280;49638;47.526;10.028;2024-03-25T06:26:34;90909.13;;;2.49;85.66
63493;BME280;49638;47.526;10.028;2024-03-25T06:29:34;90896.19;;;2.79;85.63
63493;BME280;49638;47.526;10.028;2024-03-25T06:32:35;90892.56;;;2.80;85.51
63493;BME280;49638;47.526;10.028;2024-03-25T06:35:54;90896.19;;;2.97;84.89
63493;BME280;49638;47.526;10.028;2024-03-25T06:38:55;90886.53;;;2.98;84.22
63493;BME280;49638;47.526;10.028;2024-03-25T06:41:55;90887.13;;;3.00;84.12
63493;BME280;49638;47.526;10.028;2024-03-25T06:44:55;90900.38;;;3.17;84.13
63493;BME280;49638;47.526;10.028;2024-03-25T06:47:56;90900.66;;;3.27;84.02
63493;BME280;49638;47.526;10.028;2024-03-25T06:50:58;90898.97;;;3.32;83.88
63493;BME280;49638;47.526;10.028;2024-03-25T06:53:59;90886.88;;;3.38;83.69
63493;BME280;49638;47.526;10.028;2024-03-25T06:56:59;90889.63;;;3.43;83.03
63493;BME280;49638;47.526;10.028;2024-03-25T07:00:00;90883.72;;;3.48;82.99
63493;BME280;49638;47.526;10.028;2024-03-25T07:03:00;90875.97;;;3.41;83.05
63493;BME280;49638;47.526;10.028;2024-03-25T07:06:02;90882.78;;;3.42;82.27
63493;BME280;49638;47.526;10.028;2024-03-25T07:09:03;90890.34;;;3.50;82.72
63493;BME280;49638;47.526;10.028;2024-03-25T07:12:04;90886.38;;;3.60;83.32
63493;BME280;49638;47.526;10.028;2024-03-25T07:15:04;90887.31;;;3.65;83.05
63493;BME280;49638;47.526;10.028;2024-03-25T07:18:05;90886.19;;;3.73;82.97
63493;BME280;49638;47.526;10.028;2024-03-25T07:21:06;90884.88;;;3.82;82.94
63493;BME280;49638;47.526;10.028;2024-03-25T07:24:06;90882.03;;;3.84;82.42
63493;BME280;49638;47.526;10.028;2024-03-25T07:27:06;90873.28;;;3.90;81.95
63493;BME280;49638;47.526;10.028;2024-03-25T07:30:08;90851.72;;;3.94;81.75
63493;BME280;49638;47.526;10.028;2024-03-25T07:33:08;90877.44;;;4.09;81.35
63493;BME280;49638;47.526;10.028;2024-03-25T07:36:08;90871.19;;;4.10;81.54
63493;BME280;49638;47.526;10.028;2024-03-25T07:39:08;90865.41;;;4.08;82.32
63493;BME280;49638;47.526;10.028;2024-03-25T07:42:12;90859.72;;;4.11;81.49
63493;BME280;49638;47.526;10.028;2024-03-25T07:45:12;90859.63;;;4.18;82.01
63493;BME280;49638;47.526;10.028;2024-03-25T07:48:13;90858.59;;;4.31;82.39
63493;BME280;49638;47.526;10.028;2024-03-25T07:51:13;90851.66;;;4.36;81.65
63493;BME280;49638;47.526;10.028;2024-03-25T07:54:13;90849.50;;;4.45;80.94
63493;BME280;49638;47.526;10.028;2024-03-25T07:57:17;90851.78;;;4.53;82.14
63493;BME280;49638;47.526;10.028;2024-03-25T08:00:17;90848.03;;;4.61;81.50
63493;BME280;49638;47.526;10.028;2024-03-25T08:03:18;90853.38;;;4.66;80.94
63493;BME280;49638;47.526;10.028;2024-03-25T08:06:19;90838.34;;;4.73;80.97
63493;BME280;49638;47.526;10.028;2024-03-25T08:09:21;90842.69;;;4.79;80.36
63493;BME280;49638;47.526;10.028;2024-03-25T08:12:21;90836.16;;;4.82;79.13
63493;BME280;49638;47.526;10.028;2024-03-25T08:15:21;90838.09;;;4.86;79.79
63493;BME280;49638;47.526;10.028;2024-03-25T08:18:22;90843.22;;;4.81;80.13
63493;BME280;49638;47.526;10.028;2024-03-25T08:21:22;90839.22;;;4.79;79.97
63493;BME280;49638;47.526;10.028;2024-03-25T08:24:23;90836.41;;;4.68;80.89
63493;BME280;49638;47.526;10.028;2024-03-25T08:27:23;90837.69;;;4.66;80.93
63493;BME280;49638;47.526;10.028;2024-03-25T08:30:23;90816.53;;;4.56;80.36
63493;BME280;49638;47.526;10.028;2024-03-25T08:33:24;90830.28;;;4.63;81.14
63493;BME280;49638;47.526;10.028;2024-03-25T08:36:24;90833.91;;;4.62;81.40
63493;BME280;49638;47.526;10.028;2024-03-25T08:39:24;90824.72;;;4.59;80.67
63493;BME280;49638;47.526;10.028;2024-03-25T08:42:25;90821.97;;;4.54;81.02
63493;BME280;49638;47.526;10.028;2024-03-25T08:45:25;90821.97;;;4.54;81.29
63493;BME280;49638;47.526;10.028;2024-03-25T08:48:25;90805.50;;;4.42;80.84
63493;BME280;49638;47.526;10.028;2024-03-25T08:51:25;90793.41;;;4.41;80.64
63493;BME280;49638;47.526;10.028;2024-03-25T08:54:26;90814.47;;;4.46;80.61
63493;BME280;49638;47.526;10.028;2024-03-25T08:57:26;90800.16;;;4.48;80.86
63493;BME280;49638;47.526;10.028;2024-03-25T09:00:27;90803.09;;;4.52;80.47
63493;BME280;49638;47.526;10.028;2024-03-25T09:03:27;90796.84;;;4.53;80.80
63493;BME280;49638;47.526;10.028;2024-03-25T09:06:29;90791.81;;;4.51;80.14
63493;BME280;49638;47.526;10.028;2024-03-25T09:09:29;90790.91;;;4.58;80.60
63493;BME280;49638;47.526;10.028;2024-03-25T09:12:48;90788.06;;;4.59;80.03
63493;BME280;49638;47.526;10.028;2024-03-25T09:15:49;90787.28;;;4.59;80.19
63493;BME280;49638;47.526;10.028;2024-03-25T09:18:49;90773.97;;;4.60;80.25
63493;BME280;49638;47.526;10.028;2024-03-25T09:21:50;90764.97;;;4.56;79.84
63493;BME280;49638;47.526;10.028;2024-03-25T09:24:50;90780.31;;;4.64;80.02
63493;BME280;49638;47.526;10.028;2024-03-25T09:27:51;90763.94;;;4.57;79.62
63493;BME280;49638;47.526;10.028;2024-03-25T09:30:51;90768.69;;;4.72;79.96
63493;BME280;49638;47.526;10.028;2024-03-25T09:33:51;90755.25;;;4.68;79.81
63493;BME280;49638;47.526;10.028;2024-03-25T09:36:52;90758.56;;;4.76;79.66
63493;BME280;49638;47.526;10.028;2024-03-25T09:39:52;90757.63;;;4.82;79.76
63493;BME280;49638;47.526;10.028;2024-03-25T09:42:56;90748.19;;;4.81;78.79
63493;BME280;49638;47.526;10.028;2024-03-25T09:45:56;90759.44;;;4.93;74.83
63493;BME280;49638;47.526;10.028;2024-03-25T09:48:59;90748.84;;;5.00;77.65
63493;BME280;49638;47.526;10.028;2024-03-25T09:51:59;90742.88;;;5.04;76.61
63493;BME280;49638;47.526;10.028;2024-03-25T09:55:00;90745.25;;;5.06;74.80
63493;BME280;49638;47.526;10.028;2024-03-25T09:58:02;90746.53;;;5.03;73.80
63493;BME280;49638;47.526;10.028;2024-03-25T10:01:03;90723.97;;;5.02;73.54
63493;BME280;49638;47.526;10.028;2024-03-25T10:04:03;90720.81;;;5.00;72.39
63493;BME280;49638;47.526;10.028;2024-03-25T10:07:03;90700.22;;;4.92;72.43
63493;BME280;49638;47.526;10.028;2024-03-25T10:10:04;90718.53;;;5.04;71.50
63493;BME280;49638;47.526;10.028;2024-03-25T10:13:05;90710.66;;;5.04;71.14
63493;BME280;49638;47.526;10.028;2024-03-25T10:16:06;90706.78;;;5.06;71.08
63493;BME280;49638;47.526;10.028;2024-03-25T10:19:07;90699.25;;;5.10;71.85
63493;BME280;49638;47.526;10.028;2024-03-25T10:22:08;90698.44;;;5.09;70.86
63493;BME280;49638;47.526;10.028;2024-03-25T10:25:30;90697.56;;;5.04;67.62
63493;BME280;49638;47.526;10.028;2024-03-25T10:28:31;90657.63;;;4.80;71.56
63493;BME280;49638;47.526;10.028;2024-03-25T10:31:31;90692.22;;;4.98;71.78
63493;BME280;49638;47.526;10.028;2024-03-25T10:34:32;90678.03;;;4.94;71.95
63493;BME280;49638;47.526;10.028;2024-03-25T10:37:33;90679.59;;;4.95;72.40
63493;BME280;49638;47.526;10.028;2024-03-25T10:40:36;90686.31;;;5.03;72.87
63493;BME280;49638;47.526;10.028;2024-03-25T10:43:38;90657.19;;;5.00;72.11
63493;BME280;49638;47.526;10.028;2024-03-25T10:46:39;90664.66;;;5.08;72.16
63493;BME280;49638;47.526;10.028;2024-03-25T10:49:49;90665.06;;;5.16;71.61
63493;BME280;49638;47.526;10.028;2024-03-25T10:52:51;90657.53;;;5.20;71.78
63493;BME280;49638;47.526;10.028;2024-03-25T10:55:54;90658.88;;;5.22;71.82
63493;BME280;49638;47.526;10.028;2024-03-25T10:58:55;90650.00;;;5.24;72.23
63493;BME280;49638;47.526;10.028;2024-03-25T11:01:56;90630.03;;;5.22;72.17
63493;BME280;49638;47.526;10.028;2024-03-25T11:04:56;90639.22;;;5.37;72.25
63493;BME280;49638;47.526;10.028;2024-03-25T11:07:57;90633.25;;;5.41;72.36
63493;BME280;49638;47.526;10.028;2024-03-25T11:10:59;90631.50;;;5.47;72.70
63493;BME280;49638;47.526;10.028;2024-03-25T11:14:03;90625.28;;;5.53;71.48
63493;BME280;49638;47.526;10.028;2024-03-25T11:17:14;90615.94;;;5.57;69.19
63493;BME280;49638;47.526;10.028;2024-03-25T11:20:16;90604.41;;;5.58;70.53
63493;BME280;49638;47.526;10.028;2024-03-25T11:23:17;90604.72;;;5.62;70.45
63493;BME280;49638;47.526;10.028;2024-03-25T11:26:24;90609.19;;;5.61;63.06
63493;BME280;49638;47.526;10.028;2024-03-25T11:29:25;90594.25;;;5.62;69.09
63493;BME280;49638;47.526;10.028;2024-03-25T11:32:26;90588.13;;;5.56;67.70
63493;BME280;49638;47.526;10.028;2024-03-25T11:35:28;90566.38;;;5.39;68.29
63493;BME280;49638;47.526;10.028;2024-03-25T11:38:28;90564.31;;;5.41;68.65
63493;BME280;49638;47.526;10.028;2024-03-25T11:41:29;90574.38;;;5.49;67.86
63493;BME280;49638;47.526;10.028;2024-03-25T11:44:30;90556.00;;;5.44;67.80
63493;BME280;49638;47.526;10.028;2024-03-25T11:47:30;90556.66;;;5.56;67.64
63493;BME280;49638;47.526;10.028;2024-03-25T11:50:30;90547.47;;;5.54;67.05
63493;BME280;49638;47.526;10.028;2024-03-25T11:53:31;90551.50;;;5.61;67.34
63493;BME280;49638;47.526;10.028;2024-03-25T11:56:31;90539.19;;;5.62;66.02
63493;BME280;49638;47.526;10.028;2024-03-25T11:59:32;90551.50;;;5.61;66.17
63493;BME280;49638;47.526;10.028;2024-03-25T12:02:32;90542.38;;;5.64;65.72
63493;BME280;49638;47.526;10.028;2024-03-25T12:05:32;90531.91;;;5.64;64.99
63493;BME280;49638;47.526;10.028;2024-03-25T12:08:33;90527.50;;;5.69;64.97
63493;BME280;49638;47.526;10.028;2024-03-25T12:11:36;90510.41;;;5.67;64.49
63493;BME280;49638;47.526;10.028;2024-03-25T12:14:36;90517.88;;;5.75;64.98
63493;BME280;49638;47.526;10.028;2024-03-25T12:17:37;90498.13;;;5.67;64.68
63493;BME280;49638;47.526;10.028;2024-03-25T12:20:37;90497.69;;;5.76;64.42
63493;BME280;49638;47.526;10.028;2024-03-25T12:23:38;90495.13;;;5.81;64.02
63493;BME280;49638;47.526;10.028;2024-03-25T12:26:39;90493.53;;;5.80;63.41
63493;BME280;49638;47.526;10.028;2024-03-25T12:29:39;90478.91;;;5.84;63.32
63493;BME280;49638;47.526;10.028;2024-03-25T12:32:44;90469.41;;;5.78;61.45
63493;BME280;49638;47.526;10.028;2024-03-25T12:35:46;90479.53;;;5.91;63.39
63493;BME280;49638;47.526;10.028;2024-03-25T12:38:57;90460.31;;;5.85;59.96
63493;BME280;49638;47.526;10.028;2024-03-25T12:41:57;90462.75;;;5.92;62.87
63493;BME280;49638;47.526;10.028;2024-03-25T13:21:32;90410.09;;;6.53;57.45
63493;BME280;49638;47.526;10.028;2024-03-25T13:24:33;90381.94;;;6.43;57.78
63493;BME280;49638;47.526;10.028;2024-03-25T13:27:33;90401.47;;;6.57;58.25
63493;BME280;49638;47.526;10.028;2024-03-25T13:30:33;90389.91;;;6.58;58.86
63493;BME280;49638;47.526;10.028;2024-03-25T13:33:33;90393.09;;;6.60;59.03
63493;BME280;49638;47.526;10.028;2024-03-25T13:36:34;90367.56;;;6.51;59.40
63493;BME280;49638;47.526;10.028;2024-03-25T13:39:34;90375.56;;;6.66;59.21
63493;BME280;49638;47.526;10.028;2024-03-25T13:42:34;90367.91;;;6.64;59.31
63493;BME280;49638;47.526;10.028;2024-03-25T13:45:34;90372.44;;;6.74;59.24
63493;BME280;49638;47.526;10.028;2024-03-25T13:48:35;90360.91;;;6.75;58.82
63493;BME280;49638;47.526;10.028;2024-03-25T13:51:35;90351.66;;;6.68;58.92
63493;BME280;49638;47.526;10.028;2024-03-25T13:54:35;90348.03;;;6.74;58.55
63493;BME280;49638;47.526;10.028;2024-03-25T13:57:35;90344.06;;;6.71;58.74
63493;BME280;49638;47.526;10.028;2024-03-25T14:00:36;90343.00;;;6.72;58.62
63493;BME280;49638;47.526;10.028;2024-03-25T14:03:36;90329.38;;;6.70;58.78
63493;BME280;49638;47.526;10.028;2024-03-25T14:06:37;90325.44;;;6.73;58.84
63493;BME280;49638;47.526;10.028;2024-03-25T14:09:37;90325.97;;;6.75;59.00
63493;BME280;49638;47.526;10.028;2024-03-25T14:12:37;90309.66;;;6.68;58.96
63493;BME280;49638;47.526;10.028;2024-03-25T14:15:38;90320.75;;;6.80;58.65
63493;BME280;49638;47.526;10.028;2024-03-25T14:18:38;90306.84;;;6.79;58.44
63493;BME280;49638;47.526;10.028;2024-03-25T14:21:38;90307.13;;;6.83;58.50
63493;BME280;49638;47.526;10.028;2024-03-25T14:24:38;90300.28;;;6.82;58.73
63493;BME280;49638;47.526;10.028;2024-03-25T14:27:39;90304.25;;;6.84;59.69
63493;BME280;49638;47.526;10.028;2024-03-25T14:30:39;90281.31;;;6.70;59.15
63493;BME280;49638;47.526;10.028;2024-03-25T14:33:39;90286.59;;;6.75;59.30
63493;BME280;49638;47.526;10.028;2024-03-25T14:36:39;90287.63;;;6.74;58.94
63493;BME280;49638;47.526;10.028;2024-03-25T14:39:40;90280.28;;;6.76;59.01
63493;BME280;49638;47.526;10.028;2024-03-25T14:42:41;90278.19;;;6.78;58.95
63493;BME280;49638;47.526;10.028;2024-03-25T14:45:41;90272.16;;;6.77;59.81
63493;BME280;49638;47.526;10.028;2024-03-25T14:48:41;90269.31;;;6.84;59.38
63493;BME280;49638;47.526;10.028;2024-03-25T14:51:41;90270.88;;;6.85;59.51
63493;BME280;49638;47.526;10.028;2024-03-25T14:54:42;90263.50;;;6.82;59.04
63493;BME280;49638;47.526;10.028;2024-03-25T14:57:42;90255.41;;;6.83;58.95
63493;BME280;49638;47.526;10.028;2024-03-25T15:00:42;90264.34;;;6.87;60.58
63493;BME280;49638;47.526;10.028;2024-03-25T15:03:45;90256.69;;;6.81;61.32
63493;BME280;49638;47.526;10.028;2024-03-25T15:06:45;90252.72;;;6.78;61.55
63493;BME280;49638;47.526;10.028;2024-03-25T15:09:45;90232.19;;;6.60;61.97
63493;BME280;49638;47.526;10.028;2024-03-25T15:12:46;90235.59;;;6.60;62.16
63493;BME280;49638;47.526;10.028;2024-03-25T15:15:46;90239.22;;;6.54;61.89
63493;BME280;49638;47.526;10.028;2024-03-25T15:18:47;90235.25;;;6.47;62.35
63493;BME280;49638;47.526;10.028;2024-03-25T15:21:48;90218.16;;;6.39;62.42
63493;BME280;49638;47.526;10.028;2024-03-25T15:24:48;90223.13;;;6.35;62.77
63493;BME280;49638;47.526;10.028;2024-03-25T15:27:48;90221.53;;;6.29;63.58
63493;BME280;49638;47.526;10.028;2024-03-25T15:30:48;90212.25;;;6.16;63.73
63493;BME280;49638;47.526;10.028;2024-03-25T15:33:49;90196.19;;;6.03;64.63
63493;BME280;49638;47.526;10.028;2024-03-25T15:36:49;90200.66;;;6.07;64.07
63493;BME280;49638;47.526;10.028;2024-03-25T15:39:49;90195.97;;;6.09;64.36
63493;BME280;49638;47.526;10.028;2024-03-25T15:42:50;90182.22;;;5.97;63.53
63493;BME280;49638;47.526;10.028;2024-03-25T15:45:54;90187.75;;;5.96;63.96
63493;BME280;49638;47.526;10.028;2024-03-25T15:48:54;90185.91;;;5.96;64.35
63493;BME280;49638;47.526;10.028;2024-03-25T15:51:54;90172.78;;;5.96;64.74
63493;BME280;49638;47.526;10.028;2024-03-25T15:54:55;90161.09;;;5.77;65.05
63493;BME280;49638;47.526;10.028;2024-03-25T15:58:01;90163.16;;;5.69;65.18
63493;BME280;49638;47.526;10.028;2024-03-25T16:01:01;90168.38;;;5.69;65.72
63493;BME280;49638;47.526;10.028;2024-03-25T16:04:01;90149.94;;;5.54;66.09
63493;BME280;49638;47.526;10.028;2024-03-25T16:07:02;90149.38;;;5.47;66.51
63493;BME280;49638;47.526;10.028;2024-03-25T16:10:03;90159.84;;;5.47;66.66
63493;BME280;49638;47.526;10.028;2024-03-25T16:13:03;90156.19;;;5.48;66.52
63493;BME280;49638;47.526;10.028;2024-03-25T16:16:04;90151.88;;;5.32;66.51
63493;BME280;49638;47.526;10.028;2024-03-25T16:19:08;90147.63;;;5.26;66.78
63493;BME280;49638;47.526;10.028;2024-03-25T16:22:08;90160.28;;;5.34;66.71
63493;BME280;49638;47.526;10.028;2024-03-25T16:25:08;90159.69;;;5.27;66.86
63493;BME280;49638;47.526;10.028;2024-03-25T16:28:09;90153.03;;;5.14;68.03
63493;BME280;49638;47.526;10.028;2024-03-25T16:31:09;90148.72;;;5.03;67.87
63493;BME280;49638;47.526;10.028;2024-03-25T16:34:11;90119.50;;;4.84;68.31